Phippsburg, Colorado
Current Conditions -  °F | °C
As of 12:55 AM on Monday 24 Nov 2014 (Local Time) from KSBS Reporting Station
Overcast Overcast  
Wind Chill: 10°   Ceiling: 4300
Heat Index: 19°   Visibility: 5mi
Dew Point: 15°   Wind: 6mph
Humidity: 86%   Direction: 90°E
Pressure: 30.05"   Gusts: NA
Location:  40.23°N, 106.94°W
Report Text: KSBS 240755Z AUTO 09005KT 5SM OVC043 M07/M09 A3005 RMK AO1 T10751095
Loading
Personal Weather Stations






























Interactive Weather Map New forecast layout! Learn more

10-Day Weather Forecast

Advertisements
Track Severe Weather on mobile